sensor_id;sensor_type;location;lat;lon;timestamp;pressure;altitude;pressure_sealevel;temperature;humidity
550;BME280;20066;48.764;9.176;2023-02-12T00:00:36;100156.38;;;10.34;52.97
550;BME280;20066;48.764;9.176;2023-02-12T00:03:04;100153.44;;;10.39;52.67
550;BME280;20066;48.764;9.176;2023-02-12T00:05:33;100156.69;;;10.32;53.14
550;BME280;20066;48.764;9.176;2023-02-12T00:08:03;100160.31;;;10.49;52.47
550;BME280;20066;48.764;9.176;2023-02-12T00:10:31;100156.47;;;10.37;52.39
550;BME280;20066;48.764;9.176;2023-02-12T00:12:59;100155.59;;;10.45;52.43
550;BME280;20066;48.764;9.176;2023-02-12T00:15:27;100160.81;;;10.30;52.61
550;BME280;20066;48.764;9.176;2023-02-12T00:17:55;100156.16;;;10.39;52.32
550;BME280;20066;48.764;9.176;2023-02-12T00:20:22;100164.31;;;10.42;52.34
550;BME280;20066;48.764;9.176;2023-02-12T00:22:52;100160.22;;;10.57;51.83
550;BME280;20066;48.764;9.176;2023-02-12T00:25:19;100163.56;;;10.54;52.34
550;BME280;20066;48.764;9.176;2023-02-12T00:27:47;100160.00;;;10.62;51.50
550;BME280;20066;48.764;9.176;2023-02-12T00:30:16;100161.78;;;10.58;51.41
550;BME280;20066;48.764;9.176;2023-02-12T00:32:44;100155.44;;;10.30;52.91
550;BME280;20066;48.764;9.176;2023-02-12T00:35:11;100162.09;;;10.44;52.53
550;BME280;20066;48.764;9.176;2023-02-12T00:37:39;100171.41;;;10.47;52.53
550;BME280;20066;48.764;9.176;2023-02-12T00:40:09;100169.00;;;10.00;53.78
550;BME280;20066;48.764;9.176;2023-02-12T00:42:37;100172.03;;;10.32;53.16
550;BME280;20066;48.764;9.176;2023-02-12T00:45:05;100170.84;;;10.41;52.72
550;BME280;20066;48.764;9.176;2023-02-12T00:47:33;100176.88;;;10.38;52.75
550;BME280;20066;48.764;9.176;2023-02-12T00:50:01;100177.34;;;10.40;52.87
550;BME280;20066;48.764;9.176;2023-02-12T00:52:29;100183.16;;;10.42;52.86
550;BME280;20066;48.764;9.176;2023-02-12T00:54:56;100185.66;;;10.48;52.67
550;BME280;20066;48.764;9.176;2023-02-12T00:57:25;100189.09;;;10.15;53.07
550;BME280;20066;48.764;9.176;2023-02-12T00:59:53;100182.13;;;10.35;52.86
550;BME280;20066;48.764;9.176;2023-02-12T01:02:21;100184.06;;;10.34;52.52
550;BME280;20066;48.764;9.176;2023-02-12T01:04:49;100176.69;;;10.23;52.81
550;BME280;20066;48.764;9.176;2023-02-12T01:07:16;100181.28;;;10.55;52.13
550;BME280;20066;48.764;9.176;2023-02-12T01:09:44;100172.66;;;10.50;52.43
550;BME280;20066;48.764;9.176;2023-02-12T01:12:12;100178.03;;;10.50;52.74
550;BME280;20066;48.764;9.176;2023-02-12T01:14:41;100179.09;;;10.36;52.62
550;BME280;20066;48.764;9.176;2023-02-12T01:17:08;100168.78;;;9.43;55.43
550;BME280;20066;48.764;9.176;2023-02-12T01:19:36;100177.06;;;9.09;56.36
550;BME280;20066;48.764;9.176;2023-02-12T01:22:04;100177.97;;;9.13;56.40
550;BME280;20066;48.764;9.176;2023-02-12T01:24:31;100170.38;;;9.44;55.74
550;BME280;20066;48.764;9.176;2023-02-12T01:26:59;100173.06;;;9.86;54.65
550;BME280;20066;48.764;9.176;2023-02-12T01:29:27;100174.75;;;9.90;54.43
550;BME280;20066;48.764;9.176;2023-02-12T01:31:56;100176.41;;;10.03;53.96
550;BME280;20066;48.764;9.176;2023-02-12T01:34:24;100177.00;;;10.21;53.48
550;BME280;20066;48.764;9.176;2023-02-12T01:36:51;100180.66;;;9.84;54.08
550;BME280;20066;48.764;9.176;2023-02-12T01:39:19;100173.81;;;10.07;53.80
550;BME280;20066;48.764;9.176;2023-02-12T01:41:47;100179.53;;;10.26;53.44
550;BME280;20066;48.764;9.176;2023-02-12T01:44:19;100176.75;;;10.35;52.85
550;BME280;20066;48.764;9.176;2023-02-12T01:46:49;100176.63;;;9.57;55.83
550;BME280;20066;48.764;9.176;2023-02-12T01:49:22;100170.31;;;9.74;54.99
550;BME280;20066;48.764;9.176;2023-02-12T01:51:53;100168.53;;;9.98;54.39
550;BME280;20066;48.764;9.176;2023-02-12T01:54:23;100168.59;;;10.11;53.67
550;BME280;20066;48.764;9.176;2023-02-12T01:56:52;100165.88;;;10.31;53.64
550;BME280;20066;48.764;9.176;2023-02-12T01:59:20;100163.09;;;10.40;53.09
550;BME280;20066;48.764;9.176;2023-02-12T02:01:48;100165.31;;;10.38;52.79
550;BME280;20066;48.764;9.176;2023-02-12T02:04:20;100164.31;;;10.42;52.73
550;BME280;20066;48.764;9.176;2023-02-12T02:06:52;100166.66;;;10.32;53.05
550;BME280;20066;48.764;9.176;2023-02-12T02:09:21;100165.97;;;10.35;52.91
550;BME280;20066;48.764;9.176;2023-02-12T02:11:50;100160.41;;;10.40;52.60
550;BME280;20066;48.764;9.176;2023-02-12T02:14:36;100158.03;;;10.05;53.88
550;BME280;20066;48.764;9.176;2023-02-12T02:17:29;100169.28;;;10.20;53.54
550;BME280;20066;48.764;9.176;2023-02-12T02:26:25;100148.28;;;9.59;55.83
550;BME280;20066;48.764;9.176;2023-02-12T02:29:15;100143.34;;;9.49;55.31
550;BME280;20066;48.764;9.176;2023-02-12T02:31:52;100142.00;;;9.35;55.96
550;BME280;20066;48.764;9.176;2023-02-12T02:34:28;100140.16;;;9.68;55.17
550;BME280;20066;48.764;9.176;2023-02-12T02:37:07;100146.00;;;9.70;55.18
550;BME280;20066;48.764;9.176;2023-02-12T02:39:41;100141.09;;;9.72;55.17
550;BME280;20066;48.764;9.176;2023-02-12T02:42:15;100138.31;;;10.01;54.04
550;BME280;20066;48.764;9.176;2023-02-12T02:44:47;100141.06;;;9.93;54.11
550;BME280;20066;48.764;9.176;2023-02-12T02:47:20;100144.56;;;9.31;55.96
550;BME280;20066;48.764;9.176;2023-02-12T02:49:53;100146.44;;;9.93;54.43
550;BME280;20066;48.764;9.176;2023-02-12T02:52:30;100135.19;;;10.12;53.83
550;BME280;20066;48.764;9.176;2023-02-12T02:55:02;100143.97;;;9.67;55.09
550;BME280;20066;48.764;9.176;2023-02-12T02:57:36;100132.38;;;10.08;53.95
550;BME280;20066;48.764;9.176;2023-02-12T03:00:11;100140.84;;;10.19;53.66
550;BME280;20066;48.764;9.176;2023-02-12T03:02:44;100145.06;;;10.20;53.54
550;BME280;20066;48.764;9.176;2023-02-12T03:05:18;100136.59;;;9.97;53.98
550;BME280;20066;48.764;9.176;2023-02-12T03:07:51;100144.75;;;9.67;55.30
550;BME280;20066;48.764;9.176;2023-02-12T03:10:22;100136.50;;;10.05;53.92
550;BME280;20066;48.764;9.176;2023-02-12T03:12:56;100144.91;;;10.25;53.30
550;BME280;20066;48.764;9.176;2023-02-12T03:15:30;100147.84;;;10.32;52.97
550;BME280;20066;48.764;9.176;2023-02-12T03:18:05;100143.16;;;10.41;52.82
550;BME280;20066;48.764;9.176;2023-02-12T03:20:36;100138.09;;;10.39;52.96
550;BME280;20066;48.764;9.176;2023-02-12T03:23:12;100151.66;;;10.10;53.86
550;BME280;20066;48.764;9.176;2023-02-12T03:25:47;100149.84;;;10.35;54.05
550;BME280;20066;48.764;9.176;2023-02-12T03:28:18;100157.38;;;10.41;52.98
550;BME280;20066;48.764;9.176;2023-02-12T03:30:53;100158.63;;;10.44;52.95
550;BME280;20066;48.764;9.176;2023-02-12T03:33:28;100154.47;;;10.34;53.83
550;BME280;20066;48.764;9.176;2023-02-12T03:35:58;100151.56;;;10.39;53.40
550;BME280;20066;48.764;9.176;2023-02-12T03:38:35;100158.19;;;10.42;53.49
550;BME280;20066;48.764;9.176;2023-02-12T03:41:08;100149.44;;;10.45;53.34
550;BME280;20066;48.764;9.176;2023-02-12T03:43:45;100148.88;;;10.39;53.38
550;BME280;20066;48.764;9.176;2023-02-12T03:46:19;100150.38;;;10.28;53.85
550;BME280;20066;48.764;9.176;2023-02-12T03:48:58;100146.25;;;10.31;53.37
550;BME280;20066;48.764;9.176;2023-02-12T03:51:29;100151.88;;;10.38;53.33
550;BME280;20066;48.764;9.176;2023-02-12T03:54:00;100150.53;;;10.44;53.19
550;BME280;20066;48.764;9.176;2023-02-12T03:56:33;100154.16;;;10.48;53.30
550;BME280;20066;48.764;9.176;2023-02-12T03:59:03;100158.28;;;10.45;52.96
550;BME280;20066;48.764;9.176;2023-02-12T04:01:32;100151.78;;;10.47;52.96
550;BME280;20066;48.764;9.176;2023-02-12T04:04:04;100158.03;;;10.26;53.29
550;BME280;20066;48.764;9.176;2023-02-12T04:06:32;100166.44;;;10.37;53.01
550;BME280;20066;48.764;9.176;2023-02-12T04:09:02;100168.78;;;10.05;54.17
550;BME280;20066;48.764;9.176;2023-02-12T04:11:42;100162.44;;;10.22;53.45
550;BME280;20066;48.764;9.176;2023-02-12T04:14:21;100154.38;;;10.22;53.49
550;BME280;20066;48.764;9.176;2023-02-12T04:16:58;100166.44;;;10.37;53.40
550;BME280;20066;48.764;9.176;2023-02-12T04:19:34;100165.00;;;10.39;53.31
550;BME280;20066;48.764;9.176;2023-02-12T04:22:14;100164.44;;;10.46;52.55
550;BME280;20066;48.764;9.176;2023-02-12T04:24:49;100166.69;;;10.44;52.94
550;BME280;20066;48.764;9.176;2023-02-12T04:27:22;100156.59;;;10.41;52.67
550;BME280;20066;48.764;9.176;2023-02-12T04:29:54;100176.84;;;10.26;53.21
550;BME280;20066;48.764;9.176;2023-02-12T04:32:30;100172.50;;;10.34;53.28
550;BME280;20066;48.764;9.176;2023-02-12T04:35:04;100179.53;;;10.05;53.59
550;BME280;20066;48.764;9.176;2023-02-12T04:37:37;100169.63;;;9.97;53.57
550;BME280;20066;48.764;9.176;2023-02-12T04:40:11;100176.94;;;9.55;55.75
550;BME280;20066;48.764;9.176;2023-02-12T04:42:41;100181.06;;;9.53;55.61
550;BME280;20066;48.764;9.176;2023-02-12T04:45:09;100185.75;;;9.06;56.52
550;BME280;20066;48.764;9.176;2023-02-12T04:47:37;100184.03;;;8.72;57.88
550;BME280;20066;48.764;9.176;2023-02-12T04:50:08;100180.50;;;8.80;58.18
550;BME280;20066;48.764;9.176;2023-02-12T04:52:35;100186.53;;;9.36;56.67
550;BME280;20066;48.764;9.176;2023-02-12T04:55:03;100182.25;;;9.64;55.60
550;BME280;20066;48.764;9.176;2023-02-12T04:57:31;100185.13;;;9.80;55.17
550;BME280;20066;48.764;9.176;2023-02-12T04:59:59;100190.56;;;9.92;54.65
550;BME280;20066;48.764;9.176;2023-02-12T05:02:27;100189.38;;;10.01;54.55
550;BME280;20066;48.764;9.176;2023-02-12T05:04:54;100182.47;;;10.13;53.88
550;BME280;20066;48.764;9.176;2023-02-12T05:07:23;100187.31;;;10.19;54.02
550;BME280;20066;48.764;9.176;2023-02-12T05:09:51;100185.63;;;10.15;53.69
550;BME280;20066;48.764;9.176;2023-02-12T05:12:19;100179.88;;;10.25;53.52
550;BME280;20066;48.764;9.176;2023-02-12T05:14:47;100186.81;;;10.26;53.96
550;BME280;20066;48.764;9.176;2023-02-12T05:17:14;100182.34;;;10.30;53.85
550;BME280;20066;48.764;9.176;2023-02-12T05:19:42;100176.75;;;10.35;53.24
550;BME280;20066;48.764;9.176;2023-02-12T05:22:10;100177.00;;;9.67;55.13
550;BME280;20066;48.764;9.176;2023-02-12T05:24:39;100185.50;;;9.90;55.04
550;BME280;20066;48.764;9.176;2023-02-12T05:27:07;100188.31;;;10.15;54.62
550;BME280;20066;48.764;9.176;2023-02-12T05:29:35;100179.09;;;10.03;54.52
550;BME280;20066;48.764;9.176;2023-02-12T05:32:03;100184.13;;;8.84;57.70
550;BME280;20066;48.764;9.176;2023-02-12T05:34:32;100179.63;;;9.55;56.76
550;BME280;20066;48.764;9.176;2023-02-12T05:37:00;100180.03;;;9.87;55.33
550;BME280;20066;48.764;9.176;2023-02-12T05:39:28;100177.53;;;10.02;54.86
550;BME280;20066;48.764;9.176;2023-02-12T05:41:57;100181.69;;;10.12;54.73
550;BME280;20066;48.764;9.176;2023-02-12T05:44:25;100173.09;;;10.19;54.08
550;BME280;20066;48.764;9.176;2023-02-12T05:46:52;100176.38;;;10.24;54.33
550;BME280;20066;48.764;9.176;2023-02-12T05:49:20;100183.19;;;10.22;54.37
550;BME280;20066;48.764;9.176;2023-02-12T05:51:48;100183.94;;;9.89;55.00
550;BME280;20066;48.764;9.176;2023-02-12T05:54:16;100177.06;;;10.00;54.30
550;BME280;20066;48.764;9.176;2023-02-12T05:56:45;100187.47;;;9.81;55.28
550;BME280;20066;48.764;9.176;2023-02-12T05:59:18;100193.47;;;9.87;55.51
550;BME280;20066;48.764;9.176;2023-02-12T06:01:48;100189.06;;;10.03;54.48
550;BME280;20066;48.764;9.176;2023-02-12T06:04:17;100189.31;;;10.10;54.50
550;BME280;20066;48.764;9.176;2023-02-12T06:06:45;100188.88;;;9.87;55.16
550;BME280;20066;48.764;9.176;2023-02-12T06:09:13;100185.44;;;9.99;54.59
550;BME280;20066;48.764;9.176;2023-02-12T06:11:42;100182.03;;;10.11;54.07
550;BME280;20066;48.764;9.176;2023-02-12T06:14:13;100189.72;;;9.79;55.45
550;BME280;20066;48.764;9.176;2023-02-12T06:16:44;100178.31;;;10.03;54.37
550;BME280;20066;48.764;9.176;2023-02-12T06:19:13;100181.94;;;10.19;53.79
550;BME280;20066;48.764;9.176;2023-02-12T06:21:41;100186.44;;;9.94;54.71
550;BME280;20066;48.764;9.176;2023-02-12T06:24:09;100191.66;;;10.12;53.89
550;BME280;20066;48.764;9.176;2023-02-12T06:26:37;100187.34;;;9.98;54.72
550;BME280;20066;48.764;9.176;2023-02-12T06:29:05;100183.03;;;9.85;54.90
550;BME280;20066;48.764;9.176;2023-02-12T06:31:35;100184.41;;;9.71;55.22
550;BME280;20066;48.764;9.176;2023-02-12T06:34:06;100187.34;;;9.98;54.77
550;BME280;20066;48.764;9.176;2023-02-12T06:36:36;100196.13;;;10.07;54.64
550;BME280;20066;48.764;9.176;2023-02-12T06:39:06;100197.69;;;10.08;53.85
550;BME280;20066;48.764;9.176;2023-02-12T06:41:34;100206.34;;;10.14;53.82
550;BME280;20066;48.764;9.176;2023-02-12T06:44:02;100205.16;;;10.24;53.76
550;BME280;20066;48.764;9.176;2023-02-12T06:46:30;100204.84;;;10.25;53.65
550;BME280;20066;48.764;9.176;2023-02-12T06:48:59;100208.06;;;10.19;53.69
550;BME280;20066;48.764;9.176;2023-02-12T06:51:28;100211.06;;;9.96;54.75
550;BME280;20066;48.764;9.176;2023-02-12T06:53:57;100205.00;;;10.20;54.15
550;BME280;20066;48.764;9.176;2023-02-12T06:56:25;100208.81;;;10.19;53.70
550;BME280;20066;48.764;9.176;2023-02-12T06:58:55;100215.53;;;10.13;54.06
550;BME280;20066;48.764;9.176;2023-02-12T07:01:24;100218.56;;;9.70;54.75
550;BME280;20066;48.764;9.176;2023-02-12T07:03:55;100216.59;;;9.29;56.03
550;BME280;20066;48.764;9.176;2023-02-12T07:06:24;100223.75;;;8.78;57.76
550;BME280;20066;48.764;9.176;2023-02-12T07:08:55;100224.53;;;8.79;58.34
550;BME280;20066;48.764;9.176;2023-02-12T07:11:23;100219.03;;;9.43;56.91
550;BME280;20066;48.764;9.176;2023-02-12T07:13:51;100226.75;;;9.94;55.32
550;BME280;20066;48.764;9.176;2023-02-12T07:16:19;100221.72;;;9.93;54.86
550;BME280;20066;48.764;9.176;2023-02-12T07:18:47;100216.72;;;10.03;54.26
550;BME280;20066;48.764;9.176;2023-02-12T07:21:16;100221.63;;;10.01;54.66
550;BME280;20066;48.764;9.176;2023-02-12T07:23:45;100224.03;;;9.53;56.31
550;BME280;20066;48.764;9.176;2023-02-12T07:26:19;100226.41;;;9.75;55.35
550;BME280;20066;48.764;9.176;2023-02-12T07:28:48;100223.81;;;8.44;58.13
550;BME280;20066;48.764;9.176;2023-02-12T07:31:17;100220.94;;;9.13;57.46
550;BME280;20066;48.764;9.176;2023-02-12T07:33:46;100224.19;;;8.89;57.31
550;BME280;20066;48.764;9.176;2023-02-12T07:36:16;100230.31;;;8.08;60.06
550;BME280;20066;48.764;9.176;2023-02-12T07:38:44;100226.94;;;8.63;59.74
550;BME280;20066;48.764;9.176;2023-02-12T07:41:13;100234.59;;;8.90;57.73
550;BME280;20066;48.764;9.176;2023-02-12T07:43:45;100231.25;;;8.12;60.11
550;BME280;20066;48.764;9.176;2023-02-12T07:46:15;100226.69;;;9.03;57.96
550;BME280;20066;48.764;9.176;2023-02-12T07:48:43;100221.22;;;9.49;56.26
550;BME280;20066;48.764;9.176;2023-02-12T07:51:13;100231.34;;;8.68;59.20
550;BME280;20066;48.764;9.176;2023-02-12T07:53:41;100224.75;;;8.39;59.33
550;BME280;20066;48.764;9.176;2023-02-12T07:56:11;100220.41;;;9.19;57.29
550;BME280;20066;48.764;9.176;2023-02-12T07:58:40;100232.00;;;8.47;58.35
550;BME280;20066;48.764;9.176;2023-02-12T08:01:13;100222.97;;;9.45;56.05
550;BME280;20066;48.764;9.176;2023-02-12T08:03:41;100229.25;;;9.79;54.10
550;BME280;20066;48.764;9.176;2023-02-12T08:06:11;100231.81;;;8.61;58.68
550;BME280;20066;48.764;9.176;2023-02-12T08:08:39;100225.19;;;8.59;58.83
550;BME280;20066;48.764;9.176;2023-02-12T08:11:10;100228.34;;;8.52;58.82
550;BME280;20066;48.764;9.176;2023-02-12T08:13:38;100226.25;;;8.83;58.12
550;BME280;20066;48.764;9.176;2023-02-12T08:16:08;100220.81;;;9.09;57.63
550;BME280;20066;48.764;9.176;2023-02-12T08:18:37;100222.94;;;9.54;55.60
550;BME280;20066;48.764;9.176;2023-02-12T08:21:07;100220.78;;;9.89;54.85
550;BME280;20066;48.764;9.176;2023-02-12T08:23:35;100219.50;;;10.49;53.06
550;BME280;20066;48.764;9.176;2023-02-12T08:26:08;100220.44;;;9.90;54.10
550;BME280;20066;48.764;9.176;2023-02-12T08:28:38;100216.50;;;9.67;55.04
550;BME280;20066;48.764;9.176;2023-02-12T08:31:08;100218.34;;;9.75;54.75
550;BME280;20066;48.764;9.176;2023-02-12T08:33:37;100220.59;;;9.94;54.17
550;BME280;20066;48.764;9.176;2023-02-12T08:36:07;100221.41;;;9.65;55.81
550;BME280;20066;48.764;9.176;2023-02-12T08:38:36;100214.59;;;9.88;55.24
550;BME280;20066;48.764;9.176;2023-02-12T08:41:06;100213.81;;;10.74;52.17
550;BME280;20066;48.764;9.176;2023-02-12T08:43:35;100217.91;;;11.29;50.92
550;BME280;20066;48.764;9.176;2023-02-12T08:46:04;100221.81;;;11.56;49.87
550;BME280;20066;48.764;9.176;2023-02-12T08:48:34;100216.44;;;11.68;49.81
550;BME280;20066;48.764;9.176;2023-02-12T08:51:05;100219.41;;;10.57;53.13
550;BME280;20066;48.764;9.176;2023-02-12T08:53:33;100224.25;;;10.10;53.97
550;BME280;20066;48.764;9.176;2023-02-12T08:56:02;100219.78;;;9.22;58.72
550;BME280;20066;48.764;9.176;2023-02-12T08:58:30;100220.53;;;8.12;61.78
550;BME280;20066;48.764;9.176;2023-02-12T09:00:58;100226.84;;;7.91;62.52
550;BME280;20066;48.764;9.176;2023-02-12T09:03:26;100220.53;;;7.78;63.44
550;BME280;20066;48.764;9.176;2023-02-12T09:05:54;100225.75;;;8.90;61.38
550;BME280;20066;48.764;9.176;2023-02-12T09:08:23;100235.16;;;9.05;58.78
550;BME280;20066;48.764;9.176;2023-02-12T09:10:51;100232.31;;;8.72;60.94
550;BME280;20066;48.764;9.176;2023-02-12T09:13:19;100231.28;;;8.94;60.74
550;BME280;20066;48.764;9.176;2023-02-12T09:15:47;100229.44;;;9.15;61.28
550;BME280;20066;48.764;9.176;2023-02-12T09:18:15;100224.91;;;9.07;60.67
550;BME280;20066;48.764;9.176;2023-02-12T09:20:43;100230.84;;;8.66;63.28
550;BME280;20066;48.764;9.176;2023-02-12T09:23:13;100221.59;;;8.54;65.14
550;BME280;20066;48.764;9.176;2023-02-12T09:25:43;100221.63;;;8.29;66.31
550;BME280;20066;48.764;9.176;2023-02-12T09:28:12;100219.53;;;9.36;61.30
550;BME280;20066;48.764;9.176;2023-02-12T09:30:41;100222.03;;;9.71;58.04
550;BME280;20066;48.764;9.176;2023-02-12T09:33:10;100230.44;;;9.40;57.65
550;BME280;20066;48.764;9.176;2023-02-12T09:35:39;100230.66;;;10.83;54.41
550;BME280;20066;48.764;9.176;2023-02-12T09:38:07;100228.66;;;10.93;53.94
550;BME280;20066;48.764;9.176;2023-02-12T09:40:39;100224.25;;;10.64;54.42
550;BME280;20066;48.764;9.176;2023-02-12T09:43:25;100230.22;;;10.36;54.60
550;BME280;20066;48.764;9.176;2023-02-12T09:46:02;100234.38;;;10.79;53.32
550;BME280;20066;48.764;9.176;2023-02-12T09:48:52;100233.84;;;11.10;52.98
550;BME280;20066;48.764;9.176;2023-02-12T09:51:24;100225.50;;;9.92;54.90
550;BME280;20066;48.764;9.176;2023-02-12T09:54:00;100224.63;;;10.21;55.95
550;BME280;20066;48.764;9.176;2023-02-12T09:56:29;100232.38;;;11.37;51.79
550;BME280;20066;48.764;9.176;2023-02-12T09:59:00;100237.41;;;10.44;53.80
550;BME280;20066;48.764;9.176;2023-02-12T10:01:32;100229.16;;;10.29;55.52
550;BME280;20066;48.764;9.176;2023-02-12T10:04:00;100229.19;;;9.87;56.76
550;BME280;20066;48.764;9.176;2023-02-12T10:06:31;100225.25;;;10.26;54.81
550;BME280;20066;48.764;9.176;2023-02-12T10:09:09;100230.09;;;10.33;54.80
550;BME280;20066;48.764;9.176;2023-02-12T10:11:49;100229.13;;;11.07;53.36
550;BME280;20066;48.764;9.176;2023-02-12T10:14:42;100233.88;;;11.34;52.19
550;BME280;20066;48.764;9.176;2023-02-12T10:17:21;100228.19;;;10.13;56.34
550;BME280;20066;48.764;9.176;2023-02-12T10:22:59;100225.50;;;10.13;56.24
550;BME280;20066;48.764;9.176;2023-02-12T10:25:37;100232.94;;;9.15;59.02
550;BME280;20066;48.764;9.176;2023-02-12T10:28:11;100226.63;;;10.65;55.50
550;BME280;20066;48.764;9.176;2023-02-12T10:30:43;100228.00;;;11.20;53.90
550;BME280;20066;48.764;9.176;2023-02-12T10:33:16;100236.00;;;8.97;60.46
550;BME280;20066;48.764;9.176;2023-02-12T10:35:50;100220.88;;;9.80;59.68
550;BME280;20066;48.764;9.176;2023-02-12T10:38:22;100219.84;;;9.05;60.77
550;BME280;20066;48.764;9.176;2023-02-12T10:40:52;100222.22;;;10.07;58.93
550;BME280;20066;48.764;9.176;2023-02-12T10:43:23;100214.22;;;9.98;59.41
550;BME280;20066;48.764;9.176;2023-02-12T10:45:53;100215.81;;;10.53;56.43
550;BME280;20066;48.764;9.176;2023-02-12T10:48:23;100217.69;;;9.99;57.55
550;BME280;20066;48.764;9.176;2023-02-12T10:51:03;100214.66;;;11.48;53.82
550;BME280;20066;48.764;9.176;2023-02-12T10:53:37;100211.41;;;11.06;55.58
550;BME280;20066;48.764;9.176;2023-02-12T10:56:13;100209.59;;;11.71;53.11
550;BME280;20066;48.764;9.176;2023-02-12T10:58:51;100202.22;;;11.95;52.53
550;BME280;20066;48.764;9.176;2023-02-12T11:01:24;100202.94;;;11.80;53.14
550;BME280;20066;48.764;9.176;2023-02-12T11:03:54;100203.00;;;11.19;54.20
550;BME280;20066;48.764;9.176;2023-02-12T11:06:25;100202.53;;;11.66;54.05
550;BME280;20066;48.764;9.176;2023-02-12T11:08:54;100204.78;;;10.34;57.27
550;BME280;20066;48.764;9.176;2023-02-12T11:11:24;100198.94;;;9.90;58.55
550;BME280;20066;48.764;9.176;2023-02-12T11:13:56;100197.44;;;9.81;60.95
550;BME280;20066;48.764;9.176;2023-02-12T11:16:29;100190.72;;;9.95;59.30
550;BME280;20066;48.764;9.176;2023-02-12T11:18:59;100197.69;;;10.08;58.98
550;BME280;20066;48.764;9.176;2023-02-12T11:21:27;100195.00;;;10.08;59.11
550;BME280;20066;48.764;9.176;2023-02-12T11:23:55;100189.38;;;9.39;60.95
550;BME280;20066;48.764;9.176;2023-02-12T11:26:32;100192.38;;;10.54;58.31
550;BME280;20066;48.764;9.176;2023-02-12T11:29:01;100190.97;;;10.02;58.83
550;BME280;20066;48.764;9.176;2023-02-12T11:31:34;100188.34;;;10.60;58.45
550;BME280;20066;48.764;9.176;2023-02-12T11:34:08;100182.47;;;10.33;58.14
550;BME280;20066;48.764;9.176;2023-02-12T11:36:39;100190.94;;;10.68;57.78
550;BME280;20066;48.764;9.176;2023-02-12T11:39:17;100180.38;;;9.35;62.67
550;BME280;20066;48.764;9.176;2023-02-12T11:41:50;100188.47;;;8.97;63.55
550;BME280;20066;48.764;9.176;2023-02-12T11:44:20;100183.72;;;10.15;60.40
550;BME280;20066;48.764;9.176;2023-02-12T11:46:53;100187.25;;;10.61;58.56
550;BME280;20066;48.764;9.176;2023-02-12T11:49:23;100184.56;;;11.58;55.20
550;BME280;20066;48.764;9.176;2023-02-12T11:51:53;100173.97;;;10.43;58.64
550;BME280;20066;48.764;9.176;2023-02-12T11:54:23;100174.91;;;10.60;59.32
550;BME280;20066;48.764;9.176;2023-02-12T11:56:52;100170.22;;;11.05;57.87
550;BME280;20066;48.764;9.176;2023-02-12T11:59:30;100171.03;;;9.41;61.55
550;BME280;20066;48.764;9.176;2023-02-12T12:02:21;100169.97;;;9.75;61.39
550;BME280;20066;48.764;9.176;2023-02-12T12:04:54;100173.00;;;9.94;60.58
550;BME280;20066;48.764;9.176;2023-02-12T12:07:27;100169.97;;;9.34;64.32
550;BME280;20066;48.764;9.176;2023-02-12T12:10:00;100167.63;;;9.32;63.17
550;BME280;20066;48.764;9.176;2023-02-12T12:12:37;100163.44;;;10.38;59.46
550;BME280;20066;48.764;9.176;2023-02-12T12:15:14;100171.44;;;9.93;60.43
550;BME280;20066;48.764;9.176;2023-02-12T12:18:08;100168.34;;;8.82;65.82
550;BME280;20066;48.764;9.176;2023-02-12T12:21:00;100164.53;;;9.42;63.97
550;BME280;20066;48.764;9.176;2023-02-12T12:23:34;100159.91;;;10.05;60.88
550;BME280;20066;48.764;9.176;2023-02-12T12:26:07;100162.81;;;10.00;61.15
550;BME280;20066;48.764;9.176;2023-02-12T12:28:56;100152.16;;;9.50;62.61
550;BME280;20066;48.764;9.176;2023-02-12T12:31:31;100152.69;;;11.36;58.09
550;BME280;20066;48.764;9.176;2023-02-12T12:34:06;100166.03;;;11.44;56.78
550;BME280;20066;48.764;9.176;2023-02-12T12:37:06;100156.53;;;11.22;57.45
550;BME280;20066;48.764;9.176;2023-02-12T12:39:46;100163.22;;;9.90;60.37
550;BME280;20066;48.764;9.176;2023-02-12T12:42:49;100159.38;;;9.79;61.68
550;BME280;20066;48.764;9.176;2023-02-12T12:45:38;100155.47;;;9.88;61.64
550;BME280;20066;48.764;9.176;2023-02-12T12:48:20;100157.09;;;10.79;59.60
550;BME280;20066;48.764;9.176;2023-02-12T12:51:08;100143.53;;;10.76;58.29
550;BME280;20066;48.764;9.176;2023-02-12T12:53:48;100142.72;;;10.75;58.23
550;BME280;20066;48.764;9.176;2023-02-12T12:56:28;100136.75;;;10.45;58.18
550;BME280;20066;48.764;9.176;2023-02-12T12:59:24;100142.88;;;12.39;53.72
550;BME280;20066;48.764;9.176;2023-02-12T13:02:11;100133.50;;;12.64;52.65
550;BME280;20066;48.764;9.176;2023-02-12T13:05:00;100138.22;;;10.43;58.30
550;BME280;20066;48.764;9.176;2023-02-12T13:07:46;100126.09;;;11.34;56.81
550;BME280;20066;48.764;9.176;2023-02-12T13:10:26;100123.34;;;10.94;57.21
550;BME280;20066;48.764;9.176;2023-02-12T13:13:12;100123.28;;;12.11;54.75
550;BME280;20066;48.764;9.176;2023-02-12T13:15:47;100128.44;;;12.63;53.19
550;BME280;20066;48.764;9.176;2023-02-12T13:18:25;100117.13;;;12.42;54.03
550;BME280;20066;48.764;9.176;2023-02-12T13:21:05;100113.72;;;11.45;56.59
550;BME280;20066;48.764;9.176;2023-02-12T13:23:43;100117.69;;;12.04;54.97
550;BME280;20066;48.764;9.176;2023-02-12T13:26:16;100116.81;;;10.83;57.84
550;BME280;20066;48.764;9.176;2023-02-12T13:28:49;100115.66;;;10.35;59.56
550;BME280;20066;48.764;9.176;2023-02-12T13:31:20;100117.94;;;10.33;60.60
550;BME280;20066;48.764;9.176;2023-02-12T13:34:02;100102.56;;;10.58;60.29
550;BME280;20066;48.764;9.176;2023-02-12T13:36:32;100103.94;;;10.89;59.25
550;BME280;20066;48.764;9.176;2023-02-12T13:39:11;100098.59;;;11.29;56.82
550;BME280;20066;48.764;9.176;2023-02-12T13:41:46;100105.81;;;10.39;59.38
550;BME280;20066;48.764;9.176;2023-02-12T13:44:20;100100.97;;;11.70;56.32
550;BME280;20066;48.764;9.176;2023-02-12T13:46:55;100101.91;;;10.86;58.14
550;BME280;20066;48.764;9.176;2023-02-12T13:49:37;100089.72;;;11.28;56.72